Time;durP1;ratioP1;P1;durP2;ratioP2;P2;SDS_P1;SDS_P2;PMS_P1;PMS_P2;Temp;Humidity;BMP_temperature;BMP_pressure;BME280_temperature;BME280_humidity;BME280_pressure;Samples;Min_cycle;Max_cycle;Signal;HPM_P1;HPM_P2
2022/08/22 00:01:51;;;;;;;1.45;1.10;;;;;;;20.26;61.59;96755.41;10418525;28;20037;-47
2022/08/22 00:07:21;;;;;;;1.80;1.20;;;;;;;20.27;61.61;96756.22;10415994;28;20072;-47
2022/08/22 00:13:13;;;;;;;2.10;1.20;;;;;;;20.27;61.56;96746.19;10417516;28;20415;-47
2022/08/22 00:18:54;;;;;;;3.08;1.50;;;;;;;20.28;61.61;96744.28;10417098;28;20049;-47
2022/08/22 00:24:54;;;;;;;1.50;1.38;;;;;;;20.27;61.59;96743.50;10416071;28;20049;-48
2022/08/22 00:30:16;;;;;;;1.50;1.17;;;;;;;20.28;61.59;96749.69;10401854;28;20049;-48
2022/08/22 00:35:38;;;;;;;2.40;1.17;;;;;;;20.27;61.47;96745.41;10429536;28;20054;-49
2022/08/22 00:41:19;;;;;;;1.23;1.10;;;;;;;20.25;61.51;96753.84;10400850;28;20087;-47
2022/08/22 00:46:45;;;;;;;1.35;1.25;;;;;;;20.26;61.53;96752.72;10415501;28;20429;-48
2022/08/22 00:52:20;;;;;;;1.80;1.20;;;;;;;20.25;61.48;96743.03;10415197;28;20064;-48
2022/08/22 00:57:54;;;;;;;1.48;1.20;;;;;;;20.26;61.49;96736.50;10415283;28;20072;-49
2022/08/22 01:03:36;;;;;;;2.42;1.25;;;;;;;20.25;61.47;96740.31;10427700;28;20076;-49
2022/08/22 01:09:30;;;;;;;1.98;1.40;;;;;;;20.26;61.54;96744.59;10415115;28;20046;-47
2022/08/22 01:15:00;;;;;;;1.10;1.00;;;;;;;20.26;61.53;96733.00;10415034;28;20444;-47
2022/08/22 01:20:43;;;;;;;1.15;1.02;;;;;;;20.25;61.46;96729.50;10413366;28;20456;-47
2022/08/22 01:26:34;;;;;;;2.67;1.30;;;;;;;20.24;61.42;96730.63;10392003;28;20064;-47
2022/08/22 01:32:10;;;;;;;1.40;1.30;;;;;;;20.24;61.43;96722.50;10428024;28;20089;-50
2022/08/22 01:37:50;;;;;;;1.15;1.05;;;;;;;20.24;61.46;96725.22;10414468;28;20381;-49
2022/08/22 01:43:17;;;;;;;1.98;1.10;;;;;;;20.25;61.44;96717.91;10414055;28;20086;-48
2022/08/22 01:48:37;;;;;;;1.37;1.00;;;;;;;20.25;61.46;96720.59;10386599;28;20088;-49
2022/08/22 01:54:06;;;;;;;1.30;1.15;;;;;;;20.23;61.52;96714.72;10417356;28;20042;-48
2022/08/22 01:59:40;;;;;;;1.10;1.00;;;;;;;20.23;61.48;96718.22;10426879;28;20048;-47
2022/08/22 02:05:30;;;;;;;1.45;1.17;;;;;;;20.22;61.47;96722.03;10412344;28;20106;-47
2022/08/22 02:10:56;;;;;;;1.23;1.10;;;;;;;20.23;61.45;96718.22;10413862;28;20084;-47
2022/08/22 02:16:24;;;;;;;1.52;1.17;;;;;;;20.23;61.42;96712.00;10419314;28;20183;-47
2022/08/22 02:21:46;;;;;;;1.63;1.15;;;;;;;20.22;61.42;96711.22;10421523;28;20049;-47
2022/08/22 02:27:11;;;;;;;1.70;1.27;;;;;;;20.22;61.25;96716.63;10422025;28;20124;-49
2022/08/22 02:32:40;;;;;;;1.98;1.50;;;;;;;20.23;61.37;96714.72;10419584;28;20056;-49
2022/08/22 02:38:12;;;;;;;1.75;1.20;;;;;;;20.23;61.25;96712.00;10421013;28;20501;-48
2022/08/22 02:44:01;;;;;;;1.25;1.15;;;;;;;20.23;61.28;96717.41;10406338;28;20061;-49
2022/08/22 02:49:30;;;;;;;1.52;1.10;;;;;;;20.22;61.22;96716.63;10412711;28;20076;-48
2022/08/22 02:55:13;;;;;;;1.30;1.20;;;;;;;20.22;61.23;96699.63;10417854;28;20061;-49
2022/08/22 03:00:45;;;;;;;1.30;1.10;;;;;;;20.21;61.27;96698.03;10412303;28;20087;-47
2022/08/22 03:06:38;;;;;;;2.13;1.20;;;;;;;20.20;61.18;96697.22;10433455;28;20409;-48
2022/08/22 03:12:32;;;;;;;2.08;1.23;;;;;;;20.21;61.08;96704.25;10433315;28;20370;-49
2022/08/22 03:17:56;;;;;;;1.35;1.25;;;;;;;20.20;61.06;96694.53;10404691;28;20048;-49
2022/08/22 03:23:45;;;;;;;1.40;1.20;;;;;;;20.20;61.10;96699.94;10432612;28;20546;-47
2022/08/22 03:29:10;;;;;;;2.50;1.40;;;;;;;20.20;61.19;96701.88;10417521;28;20050;-48
2022/08/22 03:34:31;;;;;;;1.27;1.17;;;;;;;20.19;61.11;96698.38;10403738;28;20585;-49
2022/08/22 03:39:50;;;;;;;1.80;1.27;;;;;;;20.20;61.01;96702.66;10418779;28;20064;-49
2022/08/22 03:45:17;;;;;;;2.53;1.30;;;;;;;20.19;61.02;96705.66;10418644;28;20061;-50
2022/08/22 03:50:49;;;;;;;1.58;1.30;;;;;;;20.19;61.00;96706.50;10418183;28;20049;-48
2022/08/22 03:56:33;;;;;;;1.33;1.10;;;;;;;20.19;60.97;96700.25;10417572;28;20056;-48
2022/08/22 04:02:30;;;;;;;1.58;1.30;;;;;;;20.19;60.92;96717.31;10395441;28;20049;-47
2022/08/22 04:08:08;;;;;;;1.48;1.38;;;;;;;20.19;60.89;96705.66;10415170;28;20061;-48
2022/08/22 04:13:52;;;;;;;1.45;1.27;;;;;;;20.19;60.92;96711.91;10417555;28;20104;-49
2022/08/22 04:19:28;;;;;;;5.28;1.80;;;;;;;20.19;61.08;96711.91;10417113;28;20053;-47
2022/08/22 04:24:51;;;;;;;2.47;1.30;;;;;;;20.18;61.24;96715.72;10407315;28;20049;-49
2022/08/22 04:30:30;;;;;;;2.50;1.23;;;;;;;20.19;61.18;96722.72;10416771;28;20045;-49
2022/08/22 04:36:02;;;;;;;1.23;1.13;;;;;;;20.19;61.33;96730.00;10400994;28;20066;-49
2022/08/22 04:41:45;;;;;;;1.45;1.23;;;;;;;20.20;61.31;96726.22;10415534;28;20119;-50
2022/08/22 04:47:12;;;;;;;1.77;1.20;;;;;;;20.19;61.22;96738.94;10403643;28;20053;-47
2022/08/22 04:52:46;;;;;;;1.50;1.40;;;;;;;20.19;61.25;96733.53;10401051;28;20061;-49
2022/08/22 04:58:36;;;;;;;6.15;1.45;;;;;;;20.19;61.17;96730.84;10400818;28;20468;-49
2022/08/22 05:04:01;;;;;;;1.60;1.35;;;;;;;20.19;61.29;96732.72;10406703;28;20493;-46
2022/08/22 05:09:25;;;;;;;2.35;1.60;;;;;;;20.19;61.28;96738.94;10424249;28;20467;-47
2022/08/22 05:14:57;;;;;;;4.93;1.50;;;;;;;20.19;60.26;96748.94;10416106;28;20048;-50
2022/08/22 05:20:20;;;;;;;3.92;1.45;;;;;;;20.17;60.58;96746.59;10400138;28;20069;-48
2022/08/22 05:25:41;;;;;;;2.15;1.25;;;;;;;20.15;60.81;96738.81;10428175;28;20092;-50
2022/08/22 05:31:08;;;;;;;1.92;1.50;;;;;;;20.18;61.06;96748.16;10402091;28;20052;-47
2022/08/22 05:36:31;;;;;;;2.97;1.30;;;;;;;20.17;61.20;96743.91;10413960;28;20037;-49
2022/08/22 05:41:53;;;;;;;3.17;1.30;;;;;;;20.17;61.15;96743.06;10414120;28;20123;-48
2022/08/22 05:47:22;;;;;;;2.67;1.30;;;;;;;20.18;61.28;96748.16;10412510;28;20497;-49
2022/08/22 05:52:58;;;;;;;1.77;1.40;;;;;;;20.17;61.28;96751.19;10414126;28;20065;-47
2022/08/22 05:58:24;;;;;;;1.98;1.40;;;;;;;20.17;61.33;96749.31;10413597;28;20083;-47
2022/08/22 06:03:55;;;;;;;2.95;1.40;;;;;;;20.17;61.42;96756.59;10414226;28;20447;-49
2022/08/22 06:09:39;;;;;;;2.13;1.40;;;;;;;20.17;61.15;96752.00;10427103;28;20038;-49
2022/08/22 06:15:27;;;;;;;1.58;1.30;;;;;;;20.18;61.35;96758.97;10388903;28;20050;-49
2022/08/22 06:20:49;;;;;;;1.50;1.30;;;;;;;20.19;61.37;96757.06;10405857;28;20085;-49
2022/08/22 06:26:10;;;;;;;1.55;1.33;;;;;;;20.19;61.43;96762.47;10412691;28;20050;-49
2022/08/22 06:31:31;;;;;;;1.88;1.40;;;;;;;20.18;61.34;96761.69;10387674;28;20061;-50
2022/08/22 06:36:53;;;;;;;1.88;1.40;;;;;;;20.18;61.62;96761.69;10426409;28;20045;-49
2022/08/22 06:42:16;;;;;;;1.98;1.27;;;;;;;20.19;61.44;96757.06;10397566;28;20420;-49
2022/08/22 06:47:39;;;;;;;2.33;1.42;;;;;;;20.17;61.44;96760.13;10398341;28;20045;-50
2022/08/22 06:53:07;;;;;;;1.85;1.40;;;;;;;20.18;61.37;96766.31;10412910;28;20099;-49
2022/08/22 06:58:42;;;;;;;1.58;1.38;;;;;;;20.20;61.39;96766.78;10390664;28;20055;-50
2022/08/22 07:04:07;;;;;;;1.52;1.27;;;;;;;20.18;61.46;96761.69;10398134;28;20046;-49
2022/08/22 07:09:40;;;;;;;1.55;1.25;;;;;;;20.20;61.49;96770.28;10419395;28;20045;-49
2022/08/22 07:15:19;;;;;;;1.20;1.10;;;;;;;20.17;61.40;96773.66;10418822;28;20467;-49
2022/08/22 07:20:44;;;;;;;2.13;1.33;;;;;;;20.18;61.45;96777.91;10393810;28;20132;-50
2022/08/22 07:26:16;;;;;;;1.40;1.23;;;;;;;20.19;61.50;96778.69;10419026;28;20049;-48
2022/08/22 07:31:40;;;;;;;1.70;1.20;;;;;;;20.18;61.53;96775.22;10432034;28;20049;-47
2022/08/22 07:37:05;;;;;;;2.10;1.40;;;;;;;20.20;61.44;96775.69;10416802;28;20157;-50
2022/08/22 07:42:30;;;;;;;2.55;1.30;;;;;;;20.20;61.49;96783.78;10417912;28;20053;-49
2022/08/22 07:48:28;;;;;;;5.43;1.75;;;;;;;20.19;61.52;96773.28;10405355;28;20050;-48
2022/08/22 07:54:12;;;;;;;8.80;3.00;;;;;;;20.20;61.57;96772.19;10403148;28;20053;-49
2022/08/22 07:59:42;;;;;;;11.90;3.85;;;;;;;20.20;61.54;96778.38;10401796;28;20053;-48
2022/08/22 08:05:02;;;;;;;15.32;4.10;;;;;;;20.19;61.65;96776.81;10402899;28;20056;-49
2022/08/22 08:10:26;;;;;;;10.85;3.97;;;;;;;20.21;61.79;96776.47;10417107;28;20099;-47
2022/08/22 08:15:46;;;;;;;10.18;3.35;;;;;;;20.20;61.79;96774.91;10402168;28;20054;-50
2022/08/22 08:21:08;;;;;;;11.45;3.80;;;;;;;20.19;61.82;96782.22;10416985;28;20140;-50
2022/08/22 08:26:34;;;;;;;8.65;3.25;;;;;;;20.20;62.08;96783.00;10417052;28;20058;-49
2022/08/22 08:31:54;;;;;;;11.70;4.03;;;;;;;20.20;61.99;96781.09;10394799;28;20046;-49
2022/08/22 08:37:37;;;;;;;12.13;4.20;;;;;;;20.20;62.23;96775.69;10415789;28;20045;-47
2022/08/22 08:49:06;;;;;;;7.72;3.20;;;;;;;20.20;62.01;96785.72;10415829;28;20124;-49
2022/08/22 08:54:43;;;;;;;9.13;3.00;;;;;;;20.22;62.01;96775.34;10429072;28;20056;-50
2022/08/22 09:00:11;;;;;;;7.07;2.90;;;;;;;20.21;62.06;96784.56;10413362;28;20083;-48
2022/08/22 09:06:12;;;;;;;6.18;2.97;;;;;;;20.20;62.01;96783.78;10428748;28;20492;-47
2022/08/22 09:12:09;;;;;;;5.43;2.78;;;;;;;20.20;62.16;96788.41;10327418;28;20080;-49
2022/08/22 09:17:59;;;;;;;6.13;2.90;;;;;;;20.20;62.12;96797.31;10412931;28;20123;-50
2022/08/22 09:23:53;;;;;;;5.50;2.60;;;;;;;20.21;62.26;96796.22;10405549;28;20128;-49
2022/08/22 09:29:36;;;;;;;5.88;2.45;;;;;;;20.21;62.30;96795.41;10414675;28;20409;-49
2022/08/22 09:35:04;;;;;;;6.80;2.70;;;;;;;20.20;62.39;96791.13;10393370;28;20049;-49
2022/08/22 09:40:59;;;;;;;4.97;2.50;;;;;;;20.20;62.50;96788.41;10398959;28;20084;-49
2022/08/22 09:46:41;;;;;;;7.30;2.65;;;;;;;20.21;62.34;96795.41;10370592;28;20054;-49
2022/08/22 09:52:09;;;;;;;5.45;2.25;;;;;;;20.21;62.47;96790.81;10404877;28;20095;-49
2022/08/22 09:57:47;;;;;;;5.30;2.60;;;;;;;20.21;62.31;96811.63;10398185;28;20045;-49
2022/08/22 10:03:26;;;;;;;4.53;2.33;;;;;;;20.21;62.29;96795.41;10399058;28;20128;-50
2022/08/22 10:08:49;;;;;;;5.18;2.53;;;;;;;20.22;62.38;96813.22;10413126;28;20053;-50
2022/08/22 10:14:13;;;;;;;4.60;2.20;;;;;;;20.20;62.37;96821.66;10398364;28;20049;-46
2022/08/22 10:19:39;;;;;;;3.33;2.13;;;;;;;20.20;62.35;96816.25;10401751;28;20056;-49
2022/08/22 10:25:31;;;;;;;6.32;2.22;;;;;;;20.20;62.36;96816.25;10398626;28;20061;-49
2022/08/22 10:31:09;;;;;;;3.17;1.95;;;;;;;20.21;62.20;96820.56;10400866;28;20053;-47
2022/08/22 10:36:44;;;;;;;4.20;2.00;;;;;;;20.20;62.32;96821.66;10430167;28;20041;-48
2022/08/22 10:42:17;;;;;;;3.17;2.08;;;;;;;20.21;62.34;96820.56;10405404;28;20059;-49
2022/08/22 10:47:49;;;;;;;4.32;2.25;;;;;;;20.20;62.42;96816.25;10430547;28;20045;-48
2022/08/22 10:53:31;;;;;;;3.55;2.05;;;;;;;20.20;62.39;96823.56;10420655;28;20046;-48
2022/08/22 10:59:12;;;;;;;2.70;1.65;;;;;;;20.21;62.46;96812.44;10409005;28;20123;-48
2022/08/22 11:04:33;;;;;;;4.05;2.20;;;;;;;20.21;62.41;96811.63;10433145;28;20090;-49
2022/08/22 11:09:55;;;;;;;4.57;2.00;;;;;;;20.20;62.42;96816.25;10419994;28;20075;-47
2022/08/22 11:15:20;;;;;;;4.95;2.30;;;;;;;20.20;62.47;96813.53;10405171;28;20394;-48
2022/08/22 11:20:40;;;;;;;5.85;2.42;;;;;;;20.21;62.71;96812.44;10419328;28;20079;-49
2022/08/22 11:26:05;;;;;;;2.45;1.67;;;;;;;20.20;62.44;96802.72;10419338;28;20053;-49
2022/08/22 11:31:58;;;;;;;2.97;1.80;;;;;;;20.20;62.54;96818.97;10432265;28;20045;-49
2022/08/22 11:37:23;;;;;;;2.80;1.98;;;;;;;20.21;62.49;96820.56;10410194;28;20054;-49
2022/08/22 11:42:47;;;;;;;2.20;1.67;;;;;;;20.21;62.50;96823.25;10417841;28;20473;-50
2022/08/22 11:48:22;;;;;;;4.22;2.00;;;;;;;20.21;62.53;96819.75;10402639;28;20448;-47
2022/08/22 11:53:46;;;;;;;2.50;1.80;;;;;;;20.21;62.49;96825.16;10417545;28;20053;-50
2022/08/22 11:59:14;;;;;;;3.65;1.92;;;;;;;20.21;62.53;96833.25;10417483;28;20063;-48
2022/08/22 12:04:41;;;;;;;3.35;1.98;;;;;;;20.21;62.41;96833.25;10417844;28;20063;-48
2022/08/22 12:10:15;;;;;;;3.28;1.88;;;;;;;20.20;62.48;96839.81;10402637;28;20049;-49
2022/08/22 12:16:06;;;;;;;2.75;1.90;;;;;;;20.20;62.55;96832.47;10411441;28;20417;-50
2022/08/22 12:21:56;;;;;;;3.40;2.00;;;;;;;20.21;62.54;96827.84;10428565;28;20121;-47
2022/08/22 12:27:38;;;;;;;2.53;1.67;;;;;;;20.20;62.50;96816.25;10426095;28;20049;-49
2022/08/22 12:33:16;;;;;;;3.25;1.60;;;;;;;20.19;62.50;96814.69;10429416;28;20068;-49
2022/08/22 12:38:54;;;;;;;3.25;1.77;;;;;;;20.20;62.50;96810.84;10415937;28;20057;-48
2022/08/22 12:44:44;;;;;;;3.03;1.80;;;;;;;20.19;62.56;96809.28;10416540;28;20046;-49
2022/08/22 12:50:14;;;;;;;2.92;1.92;;;;;;;20.21;62.49;96817.84;10395049;28;20103;-47
2022/08/22 12:55:46;;;;;;;2.10;1.52;;;;;;;20.20;62.43;96810.06;10428994;28;20392;-49
2022/08/22 13:01:06;;;;;;;2.25;1.58;;;;;;;20.20;62.64;96810.06;10411797;28;20083;-48
2022/08/22 13:06:48;;;;;;;2.38;1.67;;;;;;;20.20;62.47;96807.34;10400281;28;20436;-48
2022/08/22 13:12:31;;;;;;;2.00;1.65;;;;;;;20.21;62.44;96798.09;10413613;28;20038;-50
2022/08/22 13:17:51;;;;;;;2.55;1.50;;;;;;;20.21;62.44;96795.41;10400073;28;20053;-48
2022/08/22 13:23:21;;;;;;;2.63;1.75;;;;;;;20.21;62.49;96803.50;10399729;28;20057;-48
2022/08/22 13:28:45;;;;;;;1.83;1.55;;;;;;;20.20;62.37;96800.03;10414173;28;20071;-48
2022/08/22 13:34:43;;;;;;;2.08;1.58;;;;;;;20.20;62.36;96805.44;10388971;28;20053;-48
2022/08/22 13:40:20;;;;;;;1.63;1.48;;;;;;;20.19;62.34;96798.44;10415040;28;20460;-46
2022/08/22 13:45:40;;;;;;;2.38;1.70;;;;;;;20.19;62.38;96806.56;10412545;28;20044;-47
2022/08/22 13:51:10;;;;;;;1.65;1.50;;;;;;;20.20;62.46;96808.13;10413890;28;20057;-48
2022/08/22 13:56:51;;;;;;;1.80;1.50;;;;;;;20.20;62.47;96801.94;10412194;28;20052;-47
2022/08/22 14:02:22;;;;;;;2.25;1.33;;;;;;;20.20;62.42;96805.44;10412349;28;20053;-48
2022/08/22 14:07:57;;;;;;;1.80;1.25;;;;;;;20.20;62.35;96810.84;10413952;28;20100;-48
2022/08/22 14:13:37;;;;;;;1.98;1.38;;;;;;;20.18;62.50;96796.84;10421022;28;20060;-49
2022/08/22 14:19:01;;;;;;;2.10;1.60;;;;;;;20.19;62.45;96795.75;10406533;28;20057;-48
2022/08/22 14:24:21;;;;;;;2.63;1.50;;;;;;;20.19;62.45;96803.84;10434791;28;20050;-48
2022/08/22 14:29:53;;;;;;;1.58;1.48;;;;;;;20.20;62.40;96802.72;10421414;28;20052;-46
2022/08/22 14:35:39;;;;;;;1.60;1.33;;;;;;;20.19;62.25;96798.44;10420100;28;20058;-47
2022/08/22 14:41:05;;;;;;;1.77;1.42;;;;;;;20.18;62.21;96804.97;10414180;28;20066;-48
2022/08/22 14:46:40;;;;;;;1.58;1.42;;;;;;;20.18;62.36;96813.09;10395439;28;20052;-48
2022/08/22 14:52:12;;;;;;;2.03;1.40;;;;;;;20.19;62.34;96803.03;10419044;28;20413;-49
2022/08/22 14:57:33;;;;;;;1.92;1.40;;;;;;;20.20;62.35;96810.06;10412646;28;20058;-49
2022/08/22 15:02:54;;;;;;;1.70;1.48;;;;;;;20.17;62.12;96798.00;10421254;28;20546;-49
2022/08/22 15:08:23;;;;;;;2.03;1.65;;;;;;;20.18;62.20;96790.66;10405580;28;20053;-49
2022/08/22 15:13:52;;;;;;;2.85;1.70;;;;;;;20.19;62.26;96792.22;10419137;28;20505;-50
2022/08/22 15:19:34;;;;;;;2.55;1.50;;;;;;;20.20;62.56;96777.59;10417726;28;20037;-51
2022/08/22 15:25:23;;;;;;;5.38;1.55;;;;;;;20.19;62.73;96782.22;10410727;28;20080;-49
2022/08/22 15:31:00;;;;;;;3.83;1.65;;;;;;;20.20;62.83;96788.41;10418215;28;20057;-49
2022/08/22 15:36:24;;;;;;;4.57;1.60;;;;;;;20.19;62.93;96781.41;10418237;28;20060;-50
2022/08/22 15:41:46;;;;;;;5.57;1.65;;;;;;;20.19;63.06;96782.22;10403193;28;20054;-49
2022/08/22 15:47:10;;;;;;;2.35;1.30;;;;;;;20.18;62.96;96777.91;10418759;28;20053;-52
2022/08/22 15:52:31;;;;;;;2.92;1.40;;;;;;;20.20;62.93;96772.97;10403463;28;20049;-49
2022/08/22 15:57:59;;;;;;;3.70;1.70;;;;;;;20.19;63.11;96767.88;10402674;28;20062;-49
2022/08/22 16:03:23;;;;;;;2.95;1.52;;;;;;;20.19;63.00;96782.22;10401598;28;20500;-49
2022/08/22 16:08:47;;;;;;;2.75;1.60;;;;;;;20.18;62.96;96775.22;10417918;28;20095;-57
2022/08/22 16:14:41;;;;;;;5.50;1.73;;;;;;;20.19;62.81;96779.53;10411842;28;20061;-46
2022/08/22 16:20:07;;;;;;;2.78;1.42;;;;;;;20.19;62.86;96782.22;10430631;28;20485;-45
2022/08/22 16:25:46;;;;;;;3.72;1.35;;;;;;;20.19;62.92;96771.41;10406566;28;20099;-45
2022/08/22 16:31:22;;;;;;;;;;;;;;;20.20;63.01;96775.69;10417503;28;20058;-48
2022/08/22 16:37:07;;;;;;;2.70;1.60;;;;;;;20.19;63.00;96771.41;10407299;28;19929;-48
2022/08/22 16:42:43;;;;;;;3.42;1.58;;;;;;;20.20;62.94;96767.56;10414181;28;20065;-49
2022/08/22 16:48:34;;;;;;;3.03;1.50;;;;;;;20.20;63.04;96767.56;10401475;28;20052;-46
2022/08/22 16:54:11;;;;;;;3.55;1.52;;;;;;;20.19;63.01;96779.53;10401223;28;20057;-49
2022/08/22 16:59:59;;;;;;;4.30;1.75;;;;;;;20.19;63.05;96778.69;10401723;28;20091;-50
2022/08/22 17:05:31;;;;;;;;;;;;;;;20.19;63.07;96786.81;10414561;28;20048;-47
2022/08/22 17:11:00;;;;;;;3.97;1.42;;;;;;;20.19;62.99;96787.63;10393779;28;20019;-49
2022/08/22 17:16:26;;;;;;;2.10;1.40;;;;;;;20.19;62.94;96790.34;10400579;28;20049;-46
2022/08/22 17:21:54;;;;;;;3.78;1.60;;;;;;;20.17;62.99;96795.28;10415466;28;20124;-49
2022/08/22 17:27:14;;;;;;;;;;;;;;;20.18;62.92;96796.84;10415483;28;20049;-46
2022/08/22 17:33:15;;;;;;;1.75;1.50;;;;;;;20.09;61.18;96796.91;10427663;28;19925;-49
2022/08/22 17:38:34;;;;;;;3.77;1.93;;;;;;;19.83;60.66;96793.56;10406335;28;20057;-47
2022/08/22 17:44:24;;;;;;;3.03;1.70;;;;;;;-146.19;100.00;65364.44;10413677;28;20049;-47
2022/08/22 17:49:52;;;;;;;2.35;1.80;;;;;;;-146.19;100.00;65364.44;10414255;28;20072;-49
2022/08/22 17:55:17;;;;;;;2.70;1.73;;;;;;;-146.19;100.00;65364.44;10422650;28;20042;-48
2022/08/22 18:00:40;;;;;;;3.28;2.00;;;;;;;19.83;60.66;96793.56;10411167;28;20061;-47
2022/08/22 18:06:04;;;;;;;4.25;1.90;;;;;;;19.31;61.37;96799.94;10414083;28;20137;-48
2022/08/22 18:11:31;;;;;;;4.03;2.10;;;;;;;19.28;61.31;96798.66;10413116;28;20053;-48
2022/08/22 18:16:52;;;;;;;2.28;1.83;;;;;;;19.25;61.21;96814.69;10386456;28;20513;-46
2022/08/22 18:22:28;;;;;;;2.33;1.45;;;;;;;19.35;61.76;96823.28;10413788;28;20045;-48
2022/08/22 18:27:55;;;;;;;1.77;1.42;;;;;;;19.51;61.81;96820.06;10398398;28;20049;-47
2022/08/22 18:33:33;;;;;;;3.72;1.70;;;;;;;19.62;61.98;96815.06;10398356;28;20068;-53
2022/08/22 18:39:06;;;;;;;3.03;1.70;;;;;;;19.66;61.69;96814.13;10412694;28;20057;-47
2022/08/22 18:44:29;;;;;;;2.85;1.73;;;;;;;19.71;62.17;96827.47;10395858;28;20115;-46
2022/08/22 18:49:53;;;;;;;2.88;1.50;;;;;;;19.74;62.39;96829.53;10400563;28;20115;-47
2022/08/22 18:55:36;;;;;;;2.65;1.50;;;;;;;19.78;62.62;96832.38;10412576;28;20056;-45
2022/08/22 19:01:05;;;;;;;3.83;1.70;;;;;;;19.81;62.82;96829.00;10411327;28;20049;-45
2022/08/22 19:06:36;;;;;;;2.85;1.70;;;;;;;19.83;63.07;96828.69;10404943;28;20096;-47
2022/08/22 19:12:14;;;;;;;2.15;1.45;;;;;;;19.83;63.05;96829.47;10404958;28;20065;-48
2022/08/22 19:17:38;;;;;;;2.83;1.60;;;;;;;19.84;63.08;96831.09;10417464;28;20497;-47
2022/08/22 19:23:31;;;;;;;2.70;1.60;;;;;;;19.84;63.21;96833.78;10398509;28;20055;-46
2022/08/22 19:28:54;;;;;;;2.72;1.50;;;;;;;19.86;63.22;96833.47;10406758;28;20053;-46
2022/08/22 19:34:29;;;;;;;7.38;1.85;;;;;;;19.85;63.16;96819.13;10403553;28;20111;-46
2022/08/22 19:39:51;;;;;;;3.45;1.80;;;;;;;19.86;63.25;96828.84;10416883;28;20049;-49
2022/08/22 19:45:25;;;;;;;3.50;1.60;;;;;;;19.88;63.27;96828.53;10432016;28;20049;-47
2022/08/22 19:50:44;;;;;;;5.13;1.63;;;;;;;19.87;63.30;96832.34;10403724;28;20061;-47
2022/08/22 19:56:24;;;;;;;2.88;1.42;;;;;;;19.86;63.38;96834.25;10431215;28;20041;-49
2022/08/22 20:02:11;;;;;;;2.10;1.67;;;;;;;19.89;63.42;96835.50;10418012;28;20053;-46
2022/08/22 20:08:25;;;;;;;3.57;1.90;;;;;;;19.87;63.41;96833.13;10415553;28;20389;-48
2022/08/22 20:13:44;;;;;;;3.85;1.65;;;;;;;19.89;63.34;96833.59;10350677;28;20437;-47
2022/08/22 20:19:05;;;;;;;2.85;1.67;;;;;;;19.89;63.34;96828.19;10411752;28;20046;-49
2022/08/22 20:24:29;;;;;;;3.97;1.70;;;;;;;19.89;63.32;96822.78;10417078;28;20056;-48
2022/08/22 20:30:04;;;;;;;2.67;1.60;;;;;;;19.89;63.36;96811.16;10408906;28;20511;-48
2022/08/22 20:35:29;;;;;;;2.78;1.70;;;;;;;19.89;63.22;96813.88;10416455;28;20060;-49
2022/08/22 20:40:55;;;;;;;2.70;1.50;;;;;;;19.88;63.30;96815.78;10408435;28;20064;-49
2022/08/22 20:46:39;;;;;;;2.85;1.50;;;;;;;19.88;63.45;96815.78;10414738;28;20049;-48
2022/08/22 20:52:21;;;;;;;2.45;1.42;;;;;;;19.89;63.32;96805.75;10416337;28;20408;-48
2022/08/22 20:58:03;;;;;;;2.20;1.50;;;;;;;19.88;63.40;96804.19;10414122;28;20061;-48
2022/08/22 21:03:35;;;;;;;1.60;1.50;;;;;;;19.89;63.32;96803.84;10415454;28;20061;-50
2022/08/22 21:14:55;;;;;;;3.33;1.50;;;;;;;19.88;63.23;96798.78;10428415;28;20044;-49
2022/08/22 21:20:20;;;;;;;2.13;1.45;;;;;;;19.88;63.31;96794.16;10414256;28;20055;-48
2022/08/22 21:25:58;;;;;;;2.90;1.50;;;;;;;19.88;63.20;96794.16;10417145;28;20409;-49
2022/08/22 21:31:27;;;;;;;2.33;1.57;;;;;;;19.89;63.30;96795.75;10414630;28;20053;-48
2022/08/22 21:36:49;;;;;;;1.70;1.50;;;;;;;19.88;63.17;96799.56;10414268;28;20061;-48
2022/08/22 21:42:11;;;;;;;2.15;1.70;;;;;;;19.88;63.14;96791.47;10399076;28;20394;-48
2022/08/22 21:47:34;;;;;;;2.00;1.27;;;;;;;19.89;63.40;96792.25;10399548;28;20056;-49
2022/08/22 21:52:53;;;;;;;2.45;1.40;;;;;;;19.88;63.27;96787.97;10406287;28;20053;-48
2022/08/22 21:58:19;;;;;;;1.80;1.50;;;;;;;19.88;63.17;96788.75;10423565;28;20050;-48
2022/08/22 22:03:39;;;;;;;2.45;1.60;;;;;;;19.87;63.31;96787.16;10413847;28;20058;-48
2022/08/22 22:08:58;;;;;;;18.23;2.35;;;;;;;19.88;63.24;96777.16;10395740;28;20075;-50
2022/08/22 22:14:17;;;;;;;1.75;1.30;;;;;;;19.88;63.20;96783.34;10413934;28;20053;-50
2022/08/22 22:19:37;;;;;;;3.28;1.50;;;;;;;19.88;63.18;96777.16;10426701;28;20044;-49
2022/08/22 22:24:57;;;;;;;1.40;1.30;;;;;;;19.88;63.18;96774.47;10413549;28;20049;-48
2022/08/22 22:30:19;;;;;;;1.65;1.40;;;;;;;19.88;63.12;96777.16;10414058;28;20050;-47
2022/08/22 22:35:39;;;;;;;1.73;1.40;;;;;;;19.87;63.19;96770.94;10421401;28;20061;-48
2022/08/22 22:40:59;;;;;;;1.77;1.60;;;;;;;19.88;63.23;96774.47;10420540;28;20558;-50
2022/08/22 22:46:19;;;;;;;2.08;1.45;;;;;;;19.88;63.18;96777.16;10434297;28;20045;-50
2022/08/22 22:51:39;;;;;;;1.45;1.25;;;;;;;19.87;63.25;96770.94;10420821;28;20119;-48
2022/08/22 22:56:58;;;;;;;1.80;1.40;;;;;;;19.88;63.27;96761.72;10420014;28;20049;-48
2022/08/22 23:02:21;;;;;;;1.60;1.50;;;;;;;19.87;63.23;96760.13;10420768;28;20057;-48
2022/08/22 23:07:40;;;;;;;1.40;1.30;;;;;;;19.88;63.24;96763.66;10414700;28;20120;-49
2022/08/22 23:13:00;;;;;;;1.83;1.35;;;;;;;19.87;63.25;96745.81;10426935;28;20045;-50
2022/08/22 23:18:20;;;;;;;1.80;1.40;;;;;;;19.89;63.26;96752.47;10419569;28;20053;-50
2022/08/22 23:23:40;;;;;;;2.00;1.45;;;;;;;19.88;63.15;96759.03;10419958;28;20053;-49
2022/08/22 23:29:00;;;;;;;4.25;1.60;;;;;;;19.87;63.22;96746.59;10432314;28;20046;-49
2022/08/22 23:34:22;;;;;;;1.40;1.30;;;;;;;19.87;63.26;96754.72;10418957;28;20069;-51
2022/08/22 23:39:42;;;;;;;1.30;1.20;;;;;;;19.87;63.23;96759.34;10418200;28;20061;-50
2022/08/22 23:45:02;;;;;;;1.60;1.50;;;;;;;19.87;63.25;96745.81;10411129;28;20053;-48
2022/08/22 23:50:21;;;;;;;1.30;1.20;;;;;;;19.87;63.24;96754.72;10395625;28;20069;-51
2022/08/22 23:55:40;;;;;;;1.42;1.30;;;;;;;19.89;63.22;96751.69;10418003;28;20516;-48
